Time;durP1;ratioP1;P1;durP2;ratioP2;P2;SDS_P1;SDS_P2;PMS_P1;PMS_P2;Temp;Humidity;BMP_temperature;BMP_pressure;BME280_temperature;BME280_humidity;BME280_pressure;Samples;Min_cycle;Max_cycle;Signal;HPM_P1;HPM_P2
2023/10/14 00:01:07;;;;;;;5.50;3.60;;;18.30;54.30;;;17.24;47.79;97023.75;5048975;28;20459;-73
2023/10/14 00:03:35;;;;;;;5.43;3.37;;;18.40;54.20;;;18.30;47.70;97180.06;5063533;28;20888;-75
2023/10/14 00:06:07;;;;;;;4.60;3.90;;;18.40;54.10;;;18.29;47.65;97178.44;5067368;28;20463;-74
2023/10/14 00:08:35;;;;;;;6.20;3.90;;;18.40;54.10;;;18.33;47.29;97176.75;5066085;28;20778;-75
2023/10/14 00:11:05;;;;;;;9.50;3.50;;;18.50;53.90;;;18.29;47.50;97178.44;5062323;28;20526;-74
2023/10/14 00:13:40;;;;;;;4.50;3.50;;;18.40;53.90;;;18.28;47.44;97182.28;5045420;28;20517;-74
2023/10/14 00:16:13;;;;;;;5.70;3.70;;;18.40;53.90;;;18.35;47.48;97182.75;5067601;28;20455;-74
2023/10/14 00:18:47;;;;;;;9.70;4.37;;;18.40;53.90;;;18.29;47.46;97178.44;5065316;28;20465;-73
2023/10/14 00:21:15;;;;;;;5.27;3.33;;;18.40;53.80;;;18.36;47.23;97167.97;5045730;28;20430;-73
2023/10/14 00:23:43;;;;;;;9.87;4.17;;;18.50;53.80;;;18.36;47.27;97184.38;5066815;28;20464;-74
2023/10/14 00:26:16;;;;;;;7.50;3.90;;;18.50;53.70;;;18.47;47.05;97178.81;5067502;28;21038;-75
2023/10/14 00:28:45;;;;;;;6.97;4.33;;;18.60;53.80;;;18.38;47.04;97173.97;5061899;28;20477;-74
2023/10/14 00:31:13;;;;;;;6.63;4.03;;;18.50;53.60;;;18.45;46.90;97184.56;5063320;28;20497;-74
2023/10/14 00:33:45;;;;;;;4.90;3.47;;;18.60;53.60;;;18.57;46.43;97181.44;5063492;28;20459;-76
2023/10/14 00:36:16;;;;;;;5.50;4.30;;;18.60;53.80;;;18.51;46.67;97174.41;5066472;28;20475;-74
2023/10/14 00:38:45;;;;;;;10.67;3.90;;;18.60;53.50;;;18.46;46.72;97160.78;5062164;28;20485;-73
2023/10/14 00:41:13;;;;;;;5.07;3.60;;;18.60;53.50;;;18.42;46.61;97168.75;5066986;28;20451;-77
2023/10/14 00:43:41;;;;;;;5.00;4.20;;;18.60;53.40;;;18.51;46.72;97155.25;5065849;28;20480;-75
2023/10/14 00:46:14;;;;;;;6.00;3.80;;;18.60;53.50;;;18.39;46.63;97150.97;5049058;28;20448;-75
2023/10/14 00:48:44;;;;;;;6.50;4.10;;;18.60;53.30;;;17.97;46.65;97084.09;5050471;28;21011;-75
2023/10/14 00:51:13;;;;;;;7.37;4.50;;;18.60;53.40;;;18.41;46.69;97154.25;5062134;28;20467;-76
2023/10/14 00:53:51;;;;;;;5.80;3.80;;;18.60;53.40;;;18.41;46.76;97156.97;5065508;28;20514;-73
2023/10/14 00:56:27;;;;;;;5.47;4.37;;;18.60;53.40;;;18.43;46.84;97153.16;5062776;28;20452;-77
2023/10/14 00:58:58;;;;;;;7.03;3.93;;;18.60;53.50;;;18.36;47.10;97159.75;5057522;28;20468;-74
2023/10/14 01:01:28;;;;;;;6.83;3.87;;;18.50;53.50;;;18.31;47.13;97148.06;5057433;28;20470;-76
2023/10/14 01:04:03;;;;;;;5.83;4.17;;;18.40;53.50;;;18.32;47.30;97155.97;5067205;28;20451;-76
2023/10/14 01:06:39;;;;;;;7.17;3.70;;;18.40;53.70;;;18.24;47.62;97148.38;5066863;28;20460;-74
2023/10/14 01:09:13;;;;;;;4.77;3.50;;;18.40;53.80;;;18.26;47.30;97144.28;5066696;28;20478;-75
2023/10/14 01:11:42;;;;;;;6.20;3.70;;;18.40;53.60;;;18.28;47.37;97138.53;5064690;28;20452;-74
2023/10/14 01:14:14;;;;;;;6.70;3.60;;;18.40;53.70;;;18.30;47.21;97136.31;5049488;28;20946;-74
2023/10/14 01:16:41;;;;;;;7.83;3.67;;;18.40;53.90;;;18.23;47.69;97130.34;5044748;28;20464;-74
2023/10/14 01:19:11;;;;;;;5.70;3.27;;;18.30;53.90;;;18.26;47.69;97116.09;5062941;28;20455;-74
2023/10/14 01:21:41;;;;;;;8.23;3.77;;;18.30;53.90;;;18.21;47.63;97127.94;5048403;28;20473;-75
2023/10/14 01:24:16;;;;;;;3.67;3.10;;;18.30;53.70;;;18.28;47.54;97119.41;5063018;28;20448;-74
2023/10/14 01:26:51;;;;;;;5.20;3.80;;;18.30;53.80;;;18.26;47.49;97119.66;5061763;28;20459;-74
2023/10/14 01:29:26;;;;;;;4.30;3.80;;;18.30;53.70;;;18.19;47.68;97110.97;5044655;28;20578;-73
2023/10/14 01:32:25;;;;;;;4.80;3.67;;;18.30;53.70;;;18.22;47.26;97123.25;5039294;28;20460;-74
2023/10/14 01:34:59;;;;;;;5.47;3.00;;;18.30;53.60;;;18.19;47.21;97107.44;5060887;28;20959;-75
2023/10/14 01:37:33;;;;;;;5.30;3.83;;;18.30;53.70;;;18.19;47.65;97115.63;5064783;28;20458;-74
2023/10/14 01:40:17;;;;;;;3.70;3.40;;;18.30;53.80;;;18.17;47.76;97102.25;5060648;28;20967;-75
2023/10/14 01:42:46;;;;;;;5.50;3.40;;;18.20;53.80;;;18.16;47.44;97102.56;5056784;28;20554;-74
2023/10/14 01:45:15;;;;;;;4.67;3.50;;;18.20;53.60;;;18.21;46.99;97094.28;5060873;28;20455;-74
2023/10/14 01:47:48;;;;;;;6.57;3.17;;;18.30;53.50;;;18.05;47.58;97102.63;5060678;28;20455;-75
2023/10/14 01:50:16;;;;;;;3.67;3.30;;;18.20;53.60;;;18.21;47.61;97105.22;5059168;28;20452;-75
2023/10/14 01:52:43;;;;;;;6.73;3.20;;;18.20;53.80;;;18.23;47.21;97105.75;5061085;28;21094;-73
2023/10/14 01:55:12;;;;;;;9.43;3.47;;;18.20;53.70;;;18.09;47.68;97094.69;5061588;28;20515;-72
2023/10/14 01:57:40;;;;;;;6.30;3.43;;;18.10;53.80;;;18.27;47.35;97099.44;5060009;28;20451;-73
2023/10/14 02:00:23;;;;;;;5.83;3.43;;;18.20;53.70;;;18.14;47.32;97083.69;5063401;28;20450;-72
2023/10/14 02:03:00;;;;;;;7.70;4.00;;;18.30;53.60;;;18.26;47.02;97086.03;5057960;28;20450;-73
2023/10/14 02:05:29;;;;;;;4.80;3.90;;;18.30;53.50;;;18.24;47.12;97082.78;5055814;28;20518;-73
2023/10/14 02:07:57;;;;;;;5.57;3.33;;;18.30;53.40;;;18.32;47.01;97081.34;5055882;28;20456;-75
2023/10/14 02:10:27;;;;;;;5.00;3.30;;;18.40;53.50;;;18.27;47.25;97087.66;5064019;28;21008;-73
2023/10/14 02:12:56;;;;;;;5.67;2.90;;;18.30;53.40;;;18.29;46.85;97090.94;5057672;28;20451;-72
2023/10/14 02:15:25;;;;;;;5.17;2.83;;;18.40;53.40;;;18.30;47.25;97092.56;5056723;28;20465;-74
2023/10/14 02:17:52;;;;;;;3.30;3.00;;;18.30;53.60;;;18.29;47.10;97074.53;5043560;28;20910;-74
2023/10/14 02:20:27;;;;;;;4.23;3.30;;;18.30;53.60;;;18.24;47.53;97071.84;5060689;28;20563;-74
2023/10/14 02:22:57;;;;;;;7.80;3.77;;;18.30;53.70;;;18.12;47.63;97069.50;5058785;28;20453;-73
2023/10/14 02:25:27;;;;;;;10.97;3.53;;;18.20;53.60;;;18.20;47.78;97079.00;5045617;28;20441;-73
2023/10/14 02:27:54;;;;;;;4.63;3.60;;;18.20;54.00;;;18.12;47.80;97064.88;5060106;28;20448;-73
2023/10/14 02:30:23;;;;;;;5.83;3.70;;;18.20;54.00;;;18.24;47.38;97069.94;5062547;28;20460;-73
2023/10/14 02:32:50;;;;;;;7.07;3.63;;;18.20;53.70;;;18.32;47.41;97062.19;5064775;28;20989;-74
2023/10/14 02:35:17;;;;;;;7.23;3.63;;;18.30;53.80;;;18.22;47.48;97065.84;5066007;28;20457;-73
2023/10/14 02:37:48;;;;;;;4.93;3.70;;;18.20;53.70;;;18.27;47.18;97054.84;5043223;28;20530;-74
2023/10/14 02:40:24;;;;;;;7.10;3.70;;;18.30;53.60;;;18.33;46.97;97059.19;5060984;28;20447;-75
2023/10/14 02:42:57;;;;;;;7.17;3.87;;;18.40;53.50;;;18.40;46.75;97062.38;5054622;28;20462;-74
2023/10/14 02:45:26;;;;;;;5.43;3.20;;;18.50;53.40;;;18.43;47.17;97062.94;5044474;28;20456;-74
2023/10/14 02:48:01;;;;;;;8.47;3.80;;;18.50;53.60;;;18.50;46.76;97058.75;5062918;28;21066;-75
2023/10/14 02:50:28;;;;;;;4.57;3.40;;;18.50;53.50;;;18.57;46.82;97074.78;5048390;28;21144;-74
2023/10/14 02:53:06;;;;;;;5.03;3.80;;;18.60;53.60;;;18.53;46.62;97068.25;5058066;28;20502;-75
2023/10/14 02:58:20;;;;;;;6.50;3.70;;;18.70;53.60;;;18.57;47.00;97058.38;5065587;28;20951;-75
2023/10/14 03:00:50;;;;;;;5.13;3.97;;;18.70;53.60;;;18.62;46.92;97065.69;5065344;28;20456;-74
2023/10/14 03:03:21;;;;;;;6.97;3.97;;;18.70;53.70;;;18.58;47.14;97057.28;5045298;28;20510;-75
2023/10/14 03:05:52;;;;;;;11.07;3.97;;;18.70;53.80;;;18.53;47.19;97049.94;5053628;28;20450;-76
2023/10/14 03:08:19;;;;;;;6.50;3.60;;;18.70;53.90;;;18.62;47.39;97069.25;5052281;28;20908;-75
2023/10/14 03:10:54;;;;;;;6.23;3.60;;;18.70;53.90;;;18.68;47.52;97068.09;5046383;28;20452;-73
2023/10/14 03:13:23;;;;;;;5.93;3.87;;;18.70;54.10;;;18.61;47.69;97053.97;5055384;28;20832;-73
2023/10/14 03:15:53;;;;;;;5.73;4.03;;;18.80;54.50;;;18.71;47.99;97060.41;5063349;28;20558;-74
2023/10/14 03:18:36;;;;;;;12.10;4.60;;;18.80;54.30;;;18.80;47.85;97056.75;5062499;28;20532;-74
2023/10/14 03:21:09;;;;;;;5.47;3.57;;;18.90;54.40;;;18.75;48.30;97065.00;5061969;28;20448;-73
2023/10/14 03:23:36;;;;;;;7.13;4.40;;;18.90;54.50;;;18.77;48.98;97040.91;5063092;28;20456;-74
2023/10/14 03:26:12;;;;;;;4.20;3.77;;;18.90;55.00;;;18.82;49.47;97059.16;5063679;28;20557;-73
2023/10/14 03:28:44;;;;;;;4.80;4.30;;;19.00;55.50;;;18.83;49.40;97055.31;5061764;28;20534;-74
2023/10/14 03:31:16;;;;;;;5.50;4.50;;;19.00;55.50;;;18.92;50.07;97052.75;5047187;28;21064;-74
2023/10/14 03:33:43;;;;;;;5.93;3.60;;;19.00;55.80;;;18.95;49.92;97055.72;5045081;28;20595;-74
2023/10/14 03:36:15;;;;;;;6.07;4.40;;;19.10;56.00;;;18.90;50.38;97057.72;5069036;28;20469;-73
2023/10/14 03:38:46;;;;;;;6.07;4.57;;;19.10;56.20;;;18.88;50.84;97058.03;5063723;28;20451;-74
2023/10/14 03:41:18;;;;;;;5.97;4.50;;;19.10;56.50;;;18.91;50.98;97049.22;5065989;28;21666;-74
2023/10/14 03:43:50;;;;;;;4.63;4.20;;;19.00;56.50;;;18.91;51.16;97046.47;5062974;28;20545;-74
2023/10/14 03:46:23;;;;;;;5.87;4.80;;;19.00;56.70;;;18.94;51.54;97036.84;5065205;28;20528;-74
2023/10/14 03:48:54;;;;;;;6.50;5.47;;;19.00;57.00;;;18.87;51.90;97029.00;5061776;28;21390;-74
2023/10/14 03:51:24;;;;;;;8.63;4.43;;;19.00;57.30;;;18.90;52.22;97022.97;5061492;28;20451;-74
2023/10/14 03:53:53;;;;;;;8.53;4.70;;;19.00;57.50;;;18.98;52.67;97027.75;5062516;28;20935;-74
2023/10/14 03:56:26;;;;;;;5.17;4.57;;;19.10;58.00;;;19.02;52.92;97030.75;5064129;28;20483;-73
2023/10/14 03:58:59;;;;;;;8.00;4.97;;;19.10;58.00;;;18.97;53.31;97028.88;5063750;28;20459;-74
2023/10/14 04:01:33;;;;;;;6.90;5.73;;;19.10;58.40;;;18.84;53.76;96994.03;5062207;28;21020;-75
2023/10/14 04:04:02;;;;;;;8.60;5.93;;;19.20;58.70;;;19.13;54.12;97025.16;5063609;28;20551;-76
2023/10/14 04:06:29;;;;;;;7.20;5.43;;;19.20;59.10;;;19.11;55.06;97018.06;5044328;28;20964;-74
2023/10/14 04:08:56;;;;;;;10.93;5.50;;;19.20;59.50;;;19.15;55.29;97015.50;5066826;28;20482;-75
2023/10/14 04:11:28;;;;;;;6.10;5.43;;;19.30;59.90;;;19.27;55.50;97004.13;5046353;28;20454;-75
2023/10/14 04:14:02;;;;;;;9.23;5.63;;;19.30;60.10;;;19.29;55.97;97017.50;5059133;28;20988;-76
2023/10/14 04:16:47;;;;;;;7.07;5.70;;;19.30;60.50;;;19.28;56.07;97010.41;5042504;28;20498;-74
2023/10/14 04:19:22;;;;;;;12.03;6.23;;;19.40;60.90;;;19.29;56.50;97012.03;5054919;28;20452;-75
2023/10/14 04:21:58;;;;;;;7.93;5.97;;;19.30;61.10;;;19.31;56.67;97009.81;5063978;28;20766;-74
2023/10/14 04:24:44;;;;;;;11.47;6.63;;;19.30;61.20;;;19.28;57.22;97002.19;5064191;28;20452;-74
2023/10/14 04:27:22;;;;;;;8.07;6.03;;;19.30;61.60;;;19.26;57.13;96986.09;5066985;28;21000;-74
2023/10/14 04:29:58;;;;;;;10.23;7.00;;;19.40;61.90;;;19.30;57.60;96992.59;5061270;28;20545;-75
2023/10/14 04:32:27;;;;;;;9.97;6.40;;;19.40;62.10;;;19.34;57.74;96992.81;5040914;28;20450;-75
2023/10/14 04:34:57;;;;;;;12.07;7.77;;;19.40;62.80;;;19.37;58.16;96987.53;5054532;28;20459;-73
2023/10/14 04:37:27;;;;;;;8.90;6.53;;;19.50;62.80;;;19.44;58.42;96994.56;5057614;28;20450;-74
2023/10/14 04:39:59;;;;;;;8.30;6.50;;;19.50;63.00;;;19.43;58.24;96985.53;5046863;28;20510;-75
2023/10/14 04:42:36;;;;;;;13.30;7.33;;;19.60;63.10;;;19.50;58.64;96991.44;5060927;28;20451;-74
2023/10/14 04:45:07;;;;;;;7.87;6.77;;;19.60;63.20;;;19.38;58.77;96982.88;5057946;28;20607;-73
2023/10/14 04:47:37;;;;;;;8.80;6.73;;;19.50;63.40;;;19.15;58.95;96949.81;5061374;28;20468;-74
2023/10/14 04:50:11;;;;;;;10.33;6.90;;;19.60;63.80;;;19.42;59.24;96989.38;5065273;28;20521;-75
2023/10/14 04:52:40;;;;;;;8.60;6.53;;;19.50;64.00;;;19.48;59.15;96982.69;5039296;28;20454;-74
2023/10/14 04:55:25;;;;;;;9.67;6.87;;;19.50;64.00;;;19.49;58.84;96989.81;5061315;28;20457;-74
2023/10/14 04:58:09;;;;;;;8.03;6.67;;;19.50;64.10;;;19.25;59.64;96968.84;5045727;28;21012;-74
2023/10/14 05:00:42;;;;;;;9.73;6.60;;;19.50;64.40;;;19.42;59.69;97000.34;5057482;28;21068;-74
2023/10/14 05:03:11;;;;;;;11.07;7.07;;;19.50;64.60;;;19.45;59.84;97005.22;5062147;28;21216;-74
2023/10/14 05:05:41;;;;;;;10.80;6.53;;;19.50;64.70;;;19.49;59.71;96989.81;5041475;28;20516;-74
2023/10/14 05:08:15;;;;;;;8.70;6.00;;;19.60;64.80;;;19.63;59.58;97005.47;5062160;28;20961;-74
2023/10/14 05:10:44;;;;;;;11.20;6.80;;;19.70;65.00;;;19.69;59.61;97009.78;5056149;28;20478;-74
2023/10/14 05:13:13;;;;;;;8.93;6.57;;;19.70;65.10;;;19.67;59.19;96992.81;5058415;28;20514;-75
2023/10/14 05:15:44;;;;;;;10.83;6.30;;;19.80;65.00;;;19.76;59.45;97012.91;5061666;28;20454;-75
2023/10/14 05:18:27;;;;;;;11.73;6.87;;;19.80;65.10;;;19.80;59.37;97008.50;5062706;28;20466;-74
2023/10/14 05:21:03;;;;;;;12.17;7.30;;;19.80;65.10;;;19.87;59.08;97010.00;5062131;28;20455;-75
2023/10/14 05:23:33;;;;;;;9.73;7.90;;;19.90;65.50;;;19.88;59.12;97011.63;5061901;28;20464;-73
2023/10/14 05:26:06;;;;;;;10.60;6.67;;;19.90;65.20;;;19.82;59.32;97002.69;5045511;28;20451;-74
2023/10/14 05:28:36;;;;;;;9.27;7.50;;;19.90;65.30;;;19.82;59.34;97009.00;5060656;28;20529;-72
2023/10/14 05:31:08;;;;;;;8.27;6.47;;;19.90;65.50;;;19.90;59.11;97009.41;5058758;28;20537;-73
2023/10/14 05:33:35;;;;;;;6.83;6.20;;;20.00;65.50;;;19.37;59.38;96937.44;5065139;28;20450;-75
2023/10/14 05:36:05;;;;;;;13.30;7.87;;;20.00;65.60;;;19.89;59.53;97035.19;5066610;28;20463;-74
2023/10/14 05:38:32;;;;;;;11.87;7.77;;;19.90;65.60;;;19.93;59.53;97047.19;5058146;28;20457;-75
2023/10/14 05:41:00;;;;;;;20.13;8.50;;;20.00;65.60;;;19.81;60.54;97053.97;5063115;28;20457;-76
2023/10/14 05:43:28;;;;;;;6.17;5.47;;;20.00;66.40;;;19.46;63.08;97045.19;5065912;28;20469;-73
2023/10/14 05:45:55;;;;;;;9.10;5.30;;;19.80;67.60;;;19.01;67.26;97083.88;5048166;28;20554;-73
2023/10/14 05:48:30;;;;;;;7.03;6.00;;;19.40;69.70;;;18.13;75.47;97114.88;5068709;28;20451;-73
2023/10/14 05:50:57;;;;;;;11.73;6.47;;;18.70;77.10;;;17.26;79.30;97065.22;5062286;28;20482;-75
2023/10/14 05:53:26;;;;;;;8.93;5.97;;;18.10;83.00;;;16.88;79.97;97053.94;5046331;28;20989;-74
2023/10/14 05:56:09;;;;;;;7.63;5.40;;;17.70;84.90;;;17.07;79.47;97114.97;5063697;28;20508;-72
2023/10/14 05:58:38;;;;;;;5.37;4.87;;;17.50;84.60;;;16.97;80.04;97132.19;5038524;28;20926;-74
2023/10/14 06:01:11;;;;;;;10.93;4.77;;;17.30;85.20;;;16.86;79.81;97127.84;5062601;28;20461;-72
2023/10/14 06:03:49;;;;;;;6.40;4.77;;;17.20;85.10;;;16.91;80.05;97130.59;5064105;28;20541;-73
2023/10/14 06:06:16;;;;;;;7.93;4.50;;;17.20;85.50;;;16.95;80.64;97142.56;5058565;28;20543;-74
2023/10/14 06:08:46;;;;;;;11.70;4.97;;;17.20;86.10;;;16.91;79.48;97146.94;5047800;28;20535;-76
2023/10/14 06:11:14;;;;;;;6.43;5.00;;;17.20;85.90;;;16.87;79.27;97129.50;5050940;28;20492;-75
2023/10/14 06:13:41;;;;;;;11.23;4.23;;;17.20;85.70;;;16.97;78.30;97140.38;5041853;28;20940;-73
2023/10/14 06:16:10;;;;;;;5.60;4.27;;;17.30;85.20;;;17.03;77.95;97154.00;5043125;28;20474;-73
2023/10/14 06:18:38;;;;;;;5.80;3.80;;;17.30;85.00;;;17.15;78.17;97156.44;5059493;28;20553;-75
2023/10/14 06:21:10;;;;;;;10.47;3.90;;;17.40;85.20;;;17.05;77.79;97157.28;5058164;28;20512;-71
2023/10/14 06:23:39;;;;;;;8.20;4.27;;;17.30;84.90;;;17.20;76.51;97154.47;5055895;28;20460;-73
2023/10/14 06:26:07;;;;;;;5.57;4.40;;;17.40;84.40;;;17.12;76.36;97157.81;5038784;28;20537;-72
2023/10/14 06:28:35;;;;;;;8.13;4.07;;;17.40;84.30;;;17.19;76.04;97163.78;5059541;28;20477;-75
2023/10/14 06:31:04;;;;;;;4.80;3.83;;;17.40;84.10;;;17.22;74.69;97151.50;5057700;28;20549;-78
2023/10/14 06:33:31;;;;;;;8.90;3.53;;;17.50;83.30;;;17.23;74.55;97159.41;5056786;28;20445;-71
2023/10/14 06:36:03;;;;;;;4.30;3.53;;;17.50;83.20;;;17.33;73.27;97146.78;5044328;28;20454;-78
2023/10/14 06:38:33;;;;;;;3.73;3.03;;;17.60;82.70;;;17.17;72.56;97125.03;5055896;28;20460;-75
2023/10/14 06:41:01;;;;;;;7.00;3.57;;;17.70;82.70;;;17.61;72.10;97175.31;5060404;28;20534;-71
2023/10/14 06:43:33;;;;;;;5.87;3.70;;;17.80;82.10;;;17.71;71.69;97177.19;5058106;28;20462;-79
2023/10/14 06:46:04;;;;;;;4.30;3.13;;;17.90;82.10;;;17.55;71.93;97174.53;5066647;28;20513;-73
2023/10/14 06:48:31;;;;;;;4.40;2.90;;;17.90;81.80;;;17.74;70.69;97192.16;5048526;28;20439;-77
2023/10/14 06:50:59;;;;;;;4.73;2.37;;;18.00;81.40;;;17.84;70.31;97187.47;5047460;28;20807;-74
2023/10/14 06:53:28;;;;;;;8.73;3.37;;;18.00;81.10;;;17.99;70.27;97194.75;5062724;28;20458;-76
2023/10/14 06:55:58;;;;;;;4.90;2.30;;;18.20;81.30;;;17.99;70.46;97186.53;5059892;28;20449;-75
2023/10/14 06:58:27;;;;;;;4.60;2.80;;;18.20;81.20;;;18.03;69.95;97195.03;5058845;28;20484;-75
2023/10/14 07:00:58;;;;;;;6.43;2.47;;;18.30;81.00;;;18.21;69.54;97209.94;5056704;28;20479;-73
2023/10/14 07:03:25;;;;;;;3.20;2.10;;;18.40;81.10;;;18.16;69.01;97201.75;5040096;28;20476;-76
2023/10/14 07:05:58;;;;;;;3.73;2.07;;;18.40;80.60;;;18.16;69.36;97220.88;5062358;28;20482;-75
2023/10/14 07:08:28;;;;;;;5.30;2.53;;;18.40;80.50;;;18.02;69.37;97204.31;5058081;28;20458;-78
2023/10/14 07:11:00;;;;;;;4.07;2.00;;;18.40;80.40;;;18.10;69.25;97206.44;5061219;28;20501;-74
2023/10/14 07:13:27;;;;;;;3.10;1.93;;;18.40;80.20;;;18.05;69.39;97222.88;5059719;28;20558;-74
2023/10/14 07:15:54;;;;;;;3.77;2.10;;;18.30;80.20;;;18.12;69.22;97228.88;5066094;28;20555;-75
2023/10/14 07:18:24;;;;;;;3.30;2.20;;;18.40;80.40;;;18.19;69.33;97233.19;5038706;28;20449;-74
2023/10/14 07:20:57;;;;;;;3.40;2.40;;;18.40;80.40;;;18.18;68.99;97226.88;5059644;28;21196;-77
2023/10/14 07:23:24;;;;;;;5.07;2.27;;;18.40;80.30;;;18.16;69.27;97239.22;5041201;28;20976;-75
2023/10/14 07:25:52;;;;;;;4.03;1.87;;;18.40;80.20;;;18.17;69.12;97244.38;5060891;28;20497;-79
2023/10/14 07:28:21;;;;;;;4.07;2.03;;;18.40;80.30;;;18.18;69.51;97250.69;5062232;28;20452;-76
2023/10/14 07:30:48;;;;;;;4.67;1.83;;;18.40;80.30;;;18.09;69.18;97198.53;5064422;28;21262;-73
2023/10/14 07:33:17;;;;;;;2.27;1.83;;;18.50;80.40;;;18.52;68.30;97253.44;5040579;28;20459;-76
2023/10/14 07:35:46;;;;;;;3.90;2.10;;;18.70;80.20;;;18.59;67.98;97258.59;5063002;28;20470;-74
2023/10/14 07:38:13;;;;;;;6.30;2.30;;;18.80;79.80;;;18.28;67.92;97206.88;5042537;28;20549;-73
2023/10/14 07:40:41;;;;;;;2.73;1.87;;;18.80;79.80;;;18.65;67.84;97260.16;5063164;28;20463;-74
2023/10/14 07:43:11;;;;;;;4.77;2.23;;;18.80;79.80;;;18.60;67.27;97249.28;5065099;28;20459;-75
2023/10/14 07:45:43;;;;;;;3.80;2.33;;;18.80;79.40;;;18.62;67.56;97263.47;5062000;28;20464;-77
2023/10/14 07:48:12;;;;;;;4.00;1.80;;;18.90;79.40;;;18.45;67.65;97254.88;5064772;28;20538;-76
2023/10/14 07:50:42;;;;;;;2.47;2.27;;;18.80;79.30;;;18.52;67.90;97260.81;5045581;28;20470;-74
2023/10/14 07:53:13;;;;;;;3.10;1.50;;;18.80;79.50;;;18.39;68.10;97274.03;5049612;28;20453;-73
2023/10/14 07:55:41;;;;;;;2.20;1.73;;;18.70;79.20;;;18.52;68.02;97282.69;5062280;28;20487;-74
2023/10/14 07:58:10;;;;;;;2.40;2.07;;;18.70;79.30;;;18.73;67.22;97271.56;5062098;28;20467;-76
2023/10/14 08:00:39;;;;;;;3.87;1.87;;;18.80;79.40;;;18.78;67.17;97275.09;5069129;28;20455;-74
2023/10/14 08:03:14;;;;;;;2.83;1.63;;;18.90;79.30;;;18.82;66.86;97284.38;5048783;28;20491;-74
2023/10/14 08:05:42;;;;;;;1.63;1.40;;;19.00;79.30;;;18.60;67.43;97271.16;5064357;28;20462;-75
2023/10/14 08:08:11;;;;;;;2.87;1.70;;;18.90;79.10;;;18.64;67.00;97279.59;5065477;28;20682;-74
2023/10/14 08:10:41;;;;;;;2.80;1.80;;;18.90;78.90;;;18.74;66.87;97265.03;5060736;28;20477;-75
2023/10/14 08:13:09;;;;;;;2.97;1.93;;;18.90;79.20;;;18.76;66.87;97274.56;5062251;28;20528;-75
2023/10/14 08:15:37;;;;;;;2.73;1.40;;;19.00;79.10;;;18.73;67.01;97285.25;5069867;28;20504;-76
2023/10/14 08:18:06;;;;;;;4.30;1.57;;;18.90;79.00;;;18.90;66.59;97288.41;5063964;28;21004;-75
2023/10/14 08:20:34;;;;;;;2.87;1.47;;;19.00;79.10;;;18.83;66.88;97293.38;5066203;28;20468;-80
2023/10/14 08:23:02;;;;;;;2.77;2.30;;;19.00;79.00;;;18.44;66.77;97239.56;5060029;28;20470;-75
2023/10/14 08:25:30;;;;;;;5.03;1.63;;;19.00;79.00;;;18.59;66.91;97266.78;5064316;28;20995;-86
2023/10/14 08:28:00;;;;;;;2.30;1.33;;;18.90;79.00;;;18.85;66.41;97276.69;5060969;28;20461;-74
2023/10/14 08:30:32;;;;;;;1.70;1.37;;;19.00;79.00;;;18.83;66.48;97298.84;5063652;28;20480;-76
2023/10/14 08:33:01;;;;;;;2.80;1.30;;;19.00;78.60;;;18.90;66.29;97290.31;5048679;28;20471;-76
2023/10/14 08:35:30;;;;;;;5.90;2.00;;;19.00;78.70;;;18.91;66.10;97291.94;5073263;28;20954;-73
2023/10/14 08:37:59;;;;;;;2.40;1.70;;;19.10;78.60;;;18.93;66.36;97293.31;5068031;28;20456;-73
2023/10/14 08:40:29;;;;;;;3.67;1.60;;;19.10;78.50;;;18.82;66.32;97283.53;5041308;28;20487;-74
2023/10/14 08:43:05;;;;;;;4.80;1.47;;;19.10;78.40;;;18.81;66.26;97268.22;5065819;28;21043;-72
2023/10/14 08:45:35;;;;;;;3.17;1.40;;;19.10;78.40;;;19.20;65.47;97283.78;5060229;28;20797;-76
2023/10/14 08:48:05;;;;;;;8.03;2.23;;;19.30;78.40;;;19.16;65.38;97292.84;5064728;28;21061;-76
2023/10/14 08:50:34;;;;;;;3.40;1.40;;;19.30;78.10;;;19.22;64.79;97287.03;5053172;28;20472;-76
2023/10/14 08:53:06;;;;;;;2.97;1.90;;;19.40;77.90;;;19.22;65.11;97292.50;5056965;28;20509;-75
2023/10/14 08:55:35;;;;;;;3.57;1.50;;;19.40;78.00;;;19.21;64.82;97277.19;5058501;28;20512;-76
2023/10/14 08:58:05;;;;;;;5.60;1.87;;;19.40;78.00;;;19.25;64.83;97291.91;5048125;28;20450;-75
2023/10/14 09:00:36;;;;;;;1.83;1.10;;;19.50;77.80;;;19.31;64.61;97292.69;5060697;28;20463;-76
2023/10/14 09:03:06;;;;;;;3.63;1.80;;;19.50;77.60;;;19.28;64.59;97289.69;5056325;28;20448;-77
2023/10/14 09:05:38;;;;;;;4.23;1.60;;;19.50;77.60;;;19.74;63.48;97291.91;5057170;28;20574;-77
2023/10/14 09:08:05;;;;;;;1.30;1.07;;;19.70;77.50;;;19.41;62.76;97256.16;5066505;28;20560;-79
2023/10/14 09:10:36;;;;;;;4.87;1.63;;;19.90;76.80;;;19.52;63.45;97312.44;5062765;28;20469;-76
2023/10/14 09:13:06;;;;;;;1.83;0.90;;;19.80;77.10;;;18.42;64.24;97346.50;5060979;28;20476;-77
2023/10/14 09:15:36;;;;;;;1.03;0.57;;;19.00;75.80;;;17.32;67.13;97347.16;5062428;28;20456;-77
2023/10/14 09:18:07;;;;;;;1.27;0.57;;;18.00;76.40;;;16.95;68.32;97371.75;5064912;28;20884;-76
2023/10/14 09:20:38;;;;;;;1.23;0.60;;;17.40;76.90;;;16.66;69.68;97346.91;5065260;28;20508;-76
2023/10/14 09:23:19;;;;;;;0.90;0.50;;;17.20;78.00;;;16.51;71.21;97373.06;5058487;28;20453;-76
2023/10/14 09:25:50;;;;;;;1.90;0.50;;;17.00;78.60;;;16.28;73.70;97390.72;5056442;28;20460;-75
2023/10/14 09:28:20;;;;;;;4.83;0.70;;;16.70;80.00;;;15.91;77.74;97383.50;5043790;28;20956;-75
2023/10/14 09:30:50;;;;;;;2.90;0.63;;;16.40;82.50;;;15.36;79.88;97387.28;5063298;28;20482;-73
2023/10/14 09:33:20;;;;;;;1.37;0.70;;;15.90;83.40;;;15.27;82.33;97394.28;5041280;28;20452;-74
2023/10/14 09:35:51;;;;;;;1.03;0.40;;;15.70;85.20;;;15.26;83.81;97396.19;5057792;28;20447;-75
2023/10/14 09:38:23;;;;;;;1.67;0.60;;;15.70;86.60;;;15.08;85.17;97396.56;5059618;28;20445;-73
2023/10/14 09:40:57;;;;;;;1.00;0.60;;;15.60;87.30;;;15.21;86.27;97401.56;5059143;28;20525;-76
2023/10/14 09:43:27;;;;;;;1.00;0.60;;;15.60;88.30;;;15.24;85.86;97402.97;5063091;28;20444;-77
2023/10/14 09:45:56;;;;;;;1.67;0.80;;;15.60;88.40;;;15.37;85.06;97415.28;5057084;28;20832;-75
2023/10/14 09:48:29;;;;;;;1.20;0.60;;;15.70;88.30;;;15.66;84.90;97425.81;5039101;28;20461;-74
2023/10/14 09:51:00;;;;;;;1.43;0.80;;;15.90;88.80;;;15.60;84.98;97430.41;5062855;28;20462;-73
2023/10/14 09:53:29;;;;;;;0.73;0.63;;;15.90;88.50;;;15.52;84.42;97422.75;5044403;28;20973;-73
2023/10/14 09:55:58;;;;;;;0.90;0.80;;;16.00;88.20;;;15.57;86.19;97434.50;5060856;28;20464;-76
2023/10/14 09:58:30;;;;;;;2.33;0.73;;;15.90;89.10;;;15.61;83.50;97437.50;5057729;28;20457;-75
2023/10/14 10:00:59;;;;;;;1.63;0.70;;;15.90;87.80;;;15.52;83.92;97444.53;5057669;28;20536;-76
2023/10/14 10:03:33;;;;;;;1.33;0.60;;;15.90;87.60;;;15.25;84.87;97446.25;5060059;28;20926;-75
2023/10/14 10:06:24;;;;;;;0.87;0.63;;;15.70;88.00;;;15.25;87.46;97443.53;5064179;28;20979;-77
2023/10/14 10:09:09;;;;;;;0.67;0.67;;;15.60;89.60;;;15.33;87.19;97449.56;5061928;28;20453;-75
2023/10/14 10:11:38;;;;;;;1.17;0.80;;;15.70;90.10;;;15.54;86.69;97437.75;5061371;28;20473;-74
2023/10/14 10:14:12;;;;;;;1.73;0.80;;;15.80;90.20;;;15.61;87.89;97437.50;5043325;28;20539;-76
2023/10/14 10:16:42;;;;;;;2.17;1.00;;;15.90;90.40;;;15.63;86.96;97439.97;5048280;28;20449;-74
2023/10/14 10:19:11;;;;;;;0.77;0.63;;;15.90;90.30;;;15.38;86.78;97438.69;5067199;28;20466;-75
2023/10/14 10:21:43;;;;;;;0.77;0.77;;;15.80;89.50;;;15.35;87.21;97455.56;5069160;28;21117;-74
2023/10/14 10:24:23;;;;;;;1.20;0.90;;;15.60;90.00;;;15.34;88.53;97454.75;5060970;28;20446;-74
2023/10/14 10:27:08;;;;;;;2.33;0.70;;;15.70;90.40;;;15.33;86.90;97438.66;5068379;28;20928;-72
2023/10/14 10:29:45;;;;;;;1.27;0.77;;;15.70;90.30;;;15.30;89.29;97446.28;5063996;28;20452;-74
2023/10/14 10:32:18;;;;;;;0.70;0.70;;;15.70;90.90;;;15.01;90.24;97440.31;5050960;28;20464;-75
2023/10/14 10:35:14;;;;;;;2.40;0.70;;;15.40;90.90;;;14.67;90.74;97438.63;5044507;28;20570;-72
2023/10/14 10:37:48;;;;;;;0.97;0.70;;;15.20;91.10;;;14.53;92.46;97431.94;5047092;28;20464;-74